createdAt,value
2018-11-27T00:00:53.872Z,9.25
2018-11-27T00:03:20.758Z,9.53
2018-11-27T00:05:47.650Z,10.00
2018-11-27T00:08:15.410Z,9.55
2018-11-27T00:10:42.303Z,10.08
2018-11-27T00:13:09.196Z,8.85
2018-11-27T00:15:36.091Z,9.10
2018-11-27T00:18:03.010Z,9.08
2018-11-27T00:20:29.895Z,7.85
2018-11-27T00:22:56.798Z,7.87
2018-11-27T00:25:23.700Z,8.50
2018-11-27T00:27:50.590Z,8.48
2018-11-27T00:30:19.532Z,7.75
2018-11-27T00:32:46.489Z,8.05
2018-11-27T00:35:14.603Z,7.60
2018-11-27T00:37:41.496Z,8.73
2018-11-27T00:40:23.761Z,7.80
2018-11-27T00:42:50.679Z,7.58
2018-11-27T00:45:18.681Z,7.58
2018-11-27T00:47:46.517Z,7.33
2018-11-27T00:50:14.482Z,7.10
2018-11-27T00:52:41.399Z,8.13
2018-11-27T00:55:09.494Z,7.95
2018-11-27T00:57:36.475Z,7.53
2018-11-27T01:00:05.759Z,7.37
2018-11-27T01:02:32.652Z,7.40
2018-11-27T01:04:59.534Z,7.78
2018-11-27T01:07:26.423Z,6.45
2018-11-27T01:09:53.314Z,6.92
2018-11-27T01:12:20.210Z,7.22
2018-11-27T01:14:47.102Z,6.00
2018-11-27T01:17:13.999Z,6.28
2018-11-27T01:19:40.884Z,6.35
2018-11-27T01:22:07.786Z,5.45
2018-11-27T01:24:34.679Z,5.33
2018-11-27T01:27:01.582Z,5.25
2018-11-27T01:29:28.490Z,5.05
2018-11-27T01:31:55.361Z,4.45
2018-11-27T01:34:22.253Z,4.80
2018-11-27T01:36:49.145Z,3.85
2018-11-27T01:39:16.063Z,4.17
2018-11-27T01:41:42.970Z,3.40
2018-11-27T01:44:09.874Z,2.98
2018-11-27T01:46:36.754Z,2.85
2018-11-27T01:49:03.966Z,2.95
2018-11-27T01:51:30.850Z,3.37
2018-11-27T01:53:57.751Z,3.05
2018-11-27T01:56:24.663Z,2.62
2018-11-27T01:58:51.580Z,3.10
2018-11-27T02:01:18.483Z,2.87
2018-11-27T02:03:45.378Z,3.05
2018-11-27T02:06:12.273Z,2.80
2018-11-27T02:08:39.175Z,2.90
2018-11-27T02:11:06.083Z,2.95
2018-11-27T02:13:32.999Z,2.95
2018-11-27T02:15:59.902Z,2.83
2018-11-27T02:18:26.816Z,3.08
2018-11-27T02:20:53.723Z,2.75
2018-11-27T02:23:20.630Z,2.83
2018-11-27T02:25:47.527Z,2.50
2018-11-27T02:28:14.459Z,2.70
2018-11-27T02:30:41.351Z,3.10
2018-11-27T02:33:08.250Z,2.42
2018-11-27T02:35:35.139Z,3.00
2018-11-27T02:38:02.048Z,2.58
2018-11-27T02:40:28.970Z,2.58
2018-11-27T02:42:55.890Z,3.33
2018-11-27T02:45:23.790Z,2.75
2018-11-27T02:47:51.443Z,2.85
2018-11-27T02:50:19.444Z,2.70
2018-11-27T02:52:46.344Z,2.83
2018-11-27T02:55:14.292Z,2.62
2018-11-27T02:57:41.236Z,2.87
2018-11-27T03:00:10.455Z,2.72
2018-11-27T03:02:37.338Z,3.02
2018-11-27T03:05:06.798Z,2.52
2018-11-27T03:07:33.694Z,3.17
2018-11-27T03:10:00.602Z,3.00
2018-11-27T03:12:27.482Z,2.80
2018-11-27T03:14:54.379Z,2.95
2018-11-27T03:17:21.270Z,2.20
2018-11-27T03:19:48.170Z,3.10
2018-11-27T03:22:15.061Z,2.58
2018-11-27T03:24:41.971Z,2.40
2018-11-27T03:27:08.858Z,2.50
2018-11-27T03:29:35.768Z,2.85
2018-11-27T03:32:02.704Z,2.85
2018-11-27T03:34:29.619Z,2.40
2018-11-27T03:36:56.531Z,2.50
2018-11-27T03:39:30.174Z,2.45
2018-11-27T03:41:57.094Z,2.60
2018-11-27T03:44:23.995Z,2.60
2018-11-27T03:46:50.911Z,2.40
2018-11-27T03:49:17.826Z,2.20
2018-11-27T03:51:44.747Z,2.22
2018-11-27T03:54:11.663Z,2.17
2018-11-27T03:56:38.579Z,2.25
2018-11-27T03:59:05.515Z,2.42
2018-11-27T04:01:32.440Z,2.30
2018-11-27T04:03:59.359Z,2.15
2018-11-27T04:06:26.274Z,2.47
2018-11-27T04:08:53.185Z,2.00
2018-11-27T04:11:20.106Z,2.10
2018-11-27T04:13:46.990Z,2.00
2018-11-27T04:16:13.926Z,2.00
2018-11-27T04:18:40.837Z,2.17
2018-11-27T04:21:07.763Z,2.20
2018-11-27T04:23:34.659Z,2.20
2018-11-27T04:26:01.716Z,2.83
2018-11-27T04:28:28.645Z,2.00
2018-11-27T04:30:55.597Z,1.95
2018-11-27T04:33:22.520Z,1.92
2018-11-27T04:35:50.003Z,1.70
2018-11-27T04:38:16.953Z,1.90
2018-11-27T04:40:43.890Z,1.80
2018-11-27T04:43:10.814Z,1.75
2018-11-27T04:45:37.755Z,1.77
2018-11-27T04:48:04.677Z,2.08
2018-11-27T04:50:31.608Z,1.92
2018-11-27T04:52:58.540Z,1.80
2018-11-27T04:55:25.479Z,1.80
2018-11-27T04:57:52.700Z,1.60
2018-11-27T05:00:20.519Z,2.17
2018-11-27T05:02:47.558Z,2.05
2018-11-27T05:05:14.530Z,2.12
2018-11-27T05:07:41.519Z,2.00
2018-11-27T05:10:16.959Z,2.00
2018-11-27T05:12:44.032Z,2.05
2018-11-27T05:15:12.237Z,2.10
2018-11-27T05:17:39.286Z,2.35
2018-11-27T05:20:07.840Z,2.12
2018-11-27T05:22:35.253Z,1.87
2018-11-27T05:25:02.223Z,2.08
2018-11-27T05:27:29.155Z,2.15
2018-11-27T05:29:56.061Z,2.05
2018-11-27T05:32:22.994Z,2.17
2018-11-27T05:34:49.920Z,2.10
2018-11-27T05:37:16.871Z,2.25
2018-11-27T05:39:43.819Z,2.08
2018-11-27T05:42:10.747Z,2.25
2018-11-27T05:44:37.670Z,2.20
2018-11-27T05:47:04.886Z,2.55
2018-11-27T05:49:31.829Z,2.25
2018-11-27T05:51:58.754Z,2.05
2018-11-27T05:54:25.682Z,2.05
2018-11-27T05:56:52.621Z,2.30
2018-11-27T05:59:19.569Z,2.67
2018-11-27T06:01:46.505Z,2.30
2018-11-27T06:04:13.433Z,2.17
2018-11-27T06:06:40.379Z,2.30
2018-11-27T06:09:08.982Z,2.60
2018-11-27T06:11:35.891Z,2.45
2018-11-27T06:14:02.834Z,2.30
2018-11-27T06:16:29.750Z,2.25
2018-11-27T06:18:56.682Z,1.98
2018-11-27T06:21:23.605Z,2.62
2018-11-27T06:23:50.566Z,2.15
2018-11-27T06:26:17.534Z,2.58
2018-11-27T06:28:44.458Z,2.40
2018-11-27T06:31:11.393Z,1.98
2018-11-27T06:33:38.319Z,2.30
2018-11-27T06:36:05.670Z,2.60
2018-11-27T06:38:32.595Z,2.33
2018-11-27T06:40:59.522Z,2.60
2018-11-27T06:43:26.453Z,2.98
2018-11-27T06:45:53.367Z,4.40
2018-11-27T06:48:20.314Z,2.83
2018-11-27T06:50:47.231Z,2.70
2018-11-27T06:53:14.144Z,2.60
2018-11-27T06:55:41.079Z,2.67
2018-11-27T06:58:08.003Z,2.60
2018-11-27T07:00:35.027Z,2.67
2018-11-27T07:03:02.786Z,2.50
2018-11-27T07:05:29.699Z,2.77
2018-11-27T07:07:56.627Z,2.65
2018-11-27T07:10:27.739Z,2.70
2018-11-27T07:12:56.215Z,3.00
2018-11-27T07:15:23.463Z,2.65
2018-11-27T07:17:50.383Z,2.60
2018-11-27T07:20:17.341Z,2.58
2018-11-27T07:22:44.274Z,2.85
2018-11-27T07:25:12.211Z,2.52
2018-11-27T07:27:39.516Z,2.77
2018-11-27T07:30:25.406Z,2.58
2018-11-27T07:32:52.385Z,2.87
2018-11-27T07:35:19.578Z,2.90
2018-11-27T07:37:46.682Z,2.85
2018-11-27T07:40:14.800Z,3.00
2018-11-27T07:42:41.825Z,3.10
2018-11-27T07:45:14.136Z,3.10
2018-11-27T07:47:41.127Z,2.60
2018-11-27T07:50:08.777Z,3.30
2018-11-27T07:52:35.678Z,3.62
2018-11-27T07:55:02.614Z,3.02
2018-11-27T07:57:29.919Z,2.80
2018-11-27T07:59:56.833Z,3.22
2018-11-27T08:02:23.792Z,2.83
2018-11-27T08:04:50.697Z,2.98
2018-11-27T08:07:17.613Z,3.85
2018-11-27T08:09:44.522Z,3.10
2018-11-27T08:12:11.443Z,3.33
2018-11-27T08:14:38.384Z,2.87
2018-11-27T08:17:05.491Z,2.75
2018-11-27T08:19:32.399Z,3.10
2018-11-27T08:21:59.335Z,2.90
2018-11-27T08:24:26.246Z,3.37
2018-11-27T08:26:53.175Z,2.90
2018-11-27T08:29:20.109Z,3.30
2018-11-27T08:31:47.063Z,3.20
2018-11-27T08:34:13.974Z,3.17
2018-11-27T08:36:40.914Z,3.70
2018-11-27T08:39:08.723Z,3.83
2018-11-27T08:41:40.224Z,4.17
2018-11-27T08:44:02.607Z,3.47
2018-11-27T08:46:29.534Z,3.30
2018-11-27T08:48:56.510Z,3.65
2018-11-27T08:51:23.437Z,4.00
2018-11-27T08:53:50.374Z,4.58
2018-11-27T08:56:17.301Z,3.92
2018-11-27T08:58:44.218Z,3.77
2018-11-27T09:01:11.170Z,4.03
2018-11-27T09:03:38.100Z,3.87
2018-11-27T09:06:05.254Z,3.40
2018-11-27T09:08:32.454Z,3.42
2018-11-27T09:10:59.379Z,3.30
2018-11-27T09:13:26.310Z,3.20
2018-11-27T09:15:53.215Z,3.58
2018-11-27T09:18:22.582Z,3.20
2018-11-27T09:20:50.385Z,2.90
2018-11-27T09:23:19.052Z,2.92
2018-11-27T09:25:46.021Z,2.87
2018-11-27T09:28:12.960Z,2.98
2018-11-27T09:30:39.884Z,3.08
2018-11-27T09:33:07.542Z,3.08
2018-11-27T09:35:34.774Z,3.10
2018-11-27T09:38:01.772Z,3.25
2018-11-27T09:40:28.722Z,3.12
2018-11-27T09:42:55.689Z,3.30
2018-11-27T09:45:23.831Z,2.80
2018-11-27T09:47:51.879Z,3.30
2018-11-27T09:50:18.866Z,3.60
2018-11-27T09:52:45.822Z,4.00
2018-11-27T09:55:14.655Z,3.72
2018-11-27T09:57:41.611Z,3.72
2018-11-27T10:00:21.019Z,3.83
2018-11-27T10:02:48.210Z,3.30
2018-11-27T10:05:15.375Z,2.98
2018-11-27T10:07:42.321Z,3.20
2018-11-27T10:10:10.473Z,3.15
2018-11-27T10:12:37.598Z,3.05
2018-11-27T10:15:14.055Z,2.72
2018-11-27T10:17:41.007Z,2.60
2018-11-27T10:20:09.755Z,2.85
2018-11-27T10:22:36.685Z,2.90
2018-11-27T10:25:04.437Z,2.60
2018-11-27T10:27:31.355Z,2.93
2018-11-27T10:29:58.310Z,2.90
2018-11-27T10:32:25.239Z,2.40
2018-11-27T10:34:52.196Z,2.53
2018-11-27T10:37:19.118Z,2.60
2018-11-27T10:39:46.046Z,2.37
2018-11-27T10:42:13.812Z,2.20
2018-11-27T10:44:39.926Z,2.47
2018-11-27T10:47:06.851Z,2.60
2018-11-27T10:49:33.757Z,2.87
2018-11-27T10:52:00.664Z,2.53
2018-11-27T10:54:27.596Z,2.40
2018-11-27T10:56:54.504Z,2.90
2018-11-27T10:59:21.428Z,2.30
2018-11-27T11:01:53.023Z,2.50
2018-11-27T11:04:19.971Z,2.53
2018-11-27T11:06:47.027Z,2.60
2018-11-27T11:09:13.965Z,2.43
2018-11-27T11:11:40.900Z,2.63
2018-11-27T11:14:07.816Z,2.70
2018-11-27T11:16:34.724Z,3.10
2018-11-27T11:19:01.672Z,2.40
2018-11-27T11:21:28.603Z,2.70
2018-11-27T11:23:55.555Z,2.40
2018-11-27T11:26:22.499Z,2.63
2018-11-27T11:28:49.463Z,2.93
2018-11-27T11:31:16.386Z,2.33
2018-11-27T11:33:43.323Z,2.90
2018-11-27T11:36:10.267Z,2.80
2018-11-27T11:38:37.209Z,3.03
2018-11-27T11:41:04.847Z,2.70
2018-11-27T11:43:31.767Z,2.67
2018-11-27T11:45:58.708Z,2.87
2018-11-27T11:48:25.656Z,3.00
2018-11-27T11:50:52.582Z,3.00
2018-11-27T11:53:26.394Z,3.07
2018-11-27T11:55:53.323Z,3.00
2018-11-27T11:58:20.231Z,3.33
2018-11-27T12:00:49.839Z,3.20
2018-11-27T12:03:16.758Z,3.17
2018-11-27T12:05:43.686Z,3.70
2018-11-27T12:08:10.655Z,3.00
2018-11-27T12:10:37.676Z,3.20
2018-11-27T12:13:06.834Z,3.07
2018-11-27T12:15:33.762Z,3.10
2018-11-27T12:18:00.680Z,3.30
2018-11-27T12:20:27.629Z,3.00
2018-11-27T12:22:54.561Z,3.33
2018-11-27T12:25:24.141Z,3.20
2018-11-27T12:27:48.565Z,3.20
2018-11-27T12:30:19.795Z,3.10
2018-11-27T12:32:46.722Z,2.93
2018-11-27T12:35:14.318Z,2.90
2018-11-27T12:37:41.317Z,2.93
2018-11-27T12:40:13.474Z,3.00
2018-11-27T12:42:40.407Z,3.87
2018-11-27T12:45:09.304Z,4.03
2018-11-27T12:47:36.231Z,4.63
2018-11-27T12:50:03.621Z,3.53
2018-11-27T12:52:30.571Z,3.90
2018-11-27T12:54:57.527Z,3.30
2018-11-27T12:57:24.444Z,3.80
2018-11-27T12:59:51.379Z,3.70
2018-11-27T13:02:18.323Z,3.53
2018-11-27T13:04:45.271Z,3.47
2018-11-27T13:07:12.190Z,3.20
2018-11-27T13:09:39.118Z,3.07
2018-11-27T13:12:06.041Z,3.60
2018-11-27T13:14:32.979Z,3.33
2018-11-27T13:16:59.907Z,3.27
2018-11-27T13:19:26.912Z,3.20
2018-11-27T13:21:53.831Z,3.30
2018-11-27T13:24:20.743Z,3.13
2018-11-27T13:26:47.677Z,3.20
2018-11-27T13:29:14.586Z,3.13
2018-11-27T13:31:41.552Z,3.23
2018-11-27T13:34:11.323Z,2.77
2018-11-27T13:36:38.251Z,3.20
2018-11-27T13:39:16.868Z,3.03
2018-11-27T13:41:43.775Z,3.47
2018-11-27T13:44:10.718Z,2.97
2018-11-27T13:46:37.668Z,3.30
2018-11-27T13:49:04.578Z,3.08
2018-11-27T13:51:31.496Z,3.23
2018-11-27T13:53:58.430Z,3.20
2018-11-27T13:56:25.375Z,3.15
2018-11-27T13:58:52.417Z,3.37
2018-11-27T14:01:19.361Z,3.30
2018-11-27T14:03:46.744Z,3.42
2018-11-27T14:06:13.686Z,3.33
2018-11-27T14:08:40.719Z,3.00
2018-11-27T14:11:07.650Z,3.40
2018-11-27T14:13:34.580Z,3.20
2018-11-27T14:16:01.503Z,3.10
2018-11-27T14:18:28.433Z,3.20
2018-11-27T14:20:55.371Z,3.50
2018-11-27T14:23:22.302Z,3.23
2018-11-27T14:25:49.247Z,3.10
2018-11-27T14:28:16.479Z,3.10
2018-11-27T14:30:43.419Z,3.22
2018-11-27T14:33:10.366Z,3.75
2018-11-27T14:35:37.283Z,4.00
2018-11-27T14:38:05.359Z,3.80
2018-11-27T14:40:32.310Z,4.10
2018-11-27T14:43:00.315Z,3.75
2018-11-27T14:45:27.250Z,3.50
2018-11-27T14:47:56.412Z,3.70
2018-11-27T14:50:23.950Z,4.40
2018-11-27T14:52:50.952Z,5.35
2018-11-27T14:55:34.877Z,5.37
2018-11-27T14:58:02.410Z,9.88
2018-11-27T15:00:29.725Z,12.50
2018-11-27T15:02:58.692Z,9.83
2018-11-27T15:05:29.863Z,8.13
2018-11-27T15:07:56.830Z,7.25
2018-11-27T15:10:25.482Z,9.20
2018-11-27T15:12:52.495Z,5.33
2018-11-27T15:15:19.524Z,3.90
2018-11-27T15:20:27.875Z,6.25
2018-11-27T15:22:55.147Z,6.28
2018-11-27T15:25:23.769Z,4.87
2018-11-27T15:27:53.880Z,3.98
2018-11-27T15:30:24.719Z,3.20
2018-11-27T15:32:55.551Z,3.20
2018-11-27T15:35:22.531Z,3.55
2018-11-27T15:37:49.483Z,3.58
2018-11-27T15:40:19.901Z,3.95
2018-11-27T15:42:46.961Z,4.20
2018-11-27T15:45:15.179Z,3.70
2018-11-27T15:47:42.147Z,3.83
2018-11-27T15:50:09.426Z,4.03
2018-11-27T15:52:36.408Z,3.83
2018-11-27T15:55:05.425Z,4.25
2018-11-27T15:57:32.399Z,4.08
2018-11-27T15:59:59.328Z,3.92
2018-11-27T16:02:26.246Z,3.90
2018-11-27T16:04:53.154Z,3.67
2018-11-27T16:07:20.078Z,3.85
2018-11-27T16:09:47.031Z,5.05
2018-11-27T16:12:14.034Z,2.40
2018-11-27T16:14:40.959Z,2.65
2018-11-27T16:17:07.875Z,2.70
2018-11-27T16:19:34.819Z,3.12
2018-11-27T16:22:01.736Z,3.45
2018-11-27T16:24:28.686Z,3.15
2018-11-27T16:26:55.606Z,3.47
2018-11-27T16:29:22.533Z,3.70
2018-11-27T16:31:49.435Z,3.72
2018-11-27T16:34:16.363Z,3.72
2018-11-27T16:36:43.279Z,3.52
2018-11-27T16:39:11.152Z,4.05
2018-11-27T16:41:38.265Z,3.75
2018-11-27T16:44:05.371Z,3.92
2018-11-27T16:46:32.276Z,3.62
2018-11-27T16:48:59.197Z,3.65
2018-11-27T16:51:26.118Z,3.60
2018-11-27T16:53:53.040Z,3.47
2018-11-27T16:56:19.942Z,3.25
2018-11-27T16:58:46.861Z,3.30
2018-11-27T17:01:13.758Z,3.30
2018-11-27T17:03:40.715Z,3.80
2018-11-27T17:06:07.710Z,2.90
2018-11-27T17:08:34.651Z,3.00
2018-11-27T17:11:01.561Z,3.77
2018-11-27T17:13:28.488Z,3.42
2018-11-27T17:15:55.392Z,3.08
2018-11-27T17:18:22.351Z,3.40
2018-11-27T17:20:49.318Z,3.00
2018-11-27T17:23:17.271Z,3.37
2018-11-27T17:25:44.216Z,3.50
2018-11-27T17:28:18.165Z,3.87
2018-11-27T17:31:18.012Z,3.30
2018-11-27T17:33:51.979Z,2.60
2018-11-27T17:36:18.920Z,3.25
2018-11-27T17:38:45.852Z,3.55
2018-11-27T17:41:12.784Z,2.98
2018-11-27T17:43:39.768Z,2.92
2018-11-27T17:46:06.887Z,3.47
2018-11-27T17:48:33.830Z,2.80
2018-11-27T17:51:00.778Z,2.65
2018-11-27T17:53:34.521Z,2.70
2018-11-27T17:56:01.579Z,2.60
2018-11-27T17:58:28.519Z,2.20
2018-11-27T18:00:55.501Z,2.00
2018-11-27T18:03:22.442Z,6.17
2018-11-27T18:05:49.395Z,2.15
2018-11-27T18:08:16.350Z,1.95
2018-11-27T18:10:43.305Z,2.47
2018-11-27T18:13:10.231Z,2.10
2018-11-27T18:15:37.411Z,2.27
2018-11-27T18:18:04.805Z,2.20
2018-11-27T18:23:05.386Z,2.33
2018-11-27T18:25:32.348Z,1.80
2018-11-27T18:27:59.270Z,1.92
2018-11-27T18:30:26.199Z,2.02
2018-11-27T18:32:53.151Z,1.95
2018-11-27T18:35:21.267Z,4.60
2018-11-27T18:37:48.548Z,13.43
2018-11-27T18:40:15.953Z,4.78
2018-11-27T18:42:43.150Z,4.00
2018-11-27T18:45:15.210Z,3.10
2018-11-27T18:47:42.140Z,3.00
2018-11-27T18:50:09.855Z,2.80
2018-11-27T18:52:36.911Z,2.55
2018-11-27T18:55:04.843Z,2.50
2018-11-27T18:57:31.760Z,2.50
2018-11-27T18:59:58.679Z,2.22
2018-11-27T19:02:25.623Z,2.87
2018-11-27T19:04:52.534Z,2.90
2018-11-27T19:07:19.465Z,2.27
2018-11-27T19:09:46.386Z,2.50
2018-11-27T19:12:13.306Z,2.52
2018-11-27T19:14:40.271Z,2.55
2018-11-27T19:17:07.237Z,2.67
2018-11-27T19:19:34.220Z,3.62
2018-11-27T19:22:01.167Z,2.37
2018-11-27T19:24:28.123Z,2.83
2018-11-27T19:26:55.069Z,2.35
2018-11-27T19:29:22.008Z,2.55
2018-11-27T19:31:48.959Z,2.30
2018-11-27T19:34:15.907Z,2.50
2018-11-27T19:36:42.838Z,2.30
2018-11-27T19:39:09.786Z,2.92
2018-11-27T19:41:36.717Z,2.67
2018-11-27T19:44:03.710Z,2.80
2018-11-27T19:46:30.635Z,2.72
2018-11-27T19:48:57.574Z,2.80
2018-11-27T19:51:24.906Z,2.90
2018-11-27T19:53:51.871Z,3.10
2018-11-27T19:56:18.790Z,2.87
2018-11-27T19:58:45.715Z,2.92
2018-11-27T20:01:12.639Z,3.27
2018-11-27T20:03:39.607Z,3.27
2018-11-27T20:06:06.554Z,2.95
2018-11-27T20:08:33.479Z,3.17
2018-11-27T20:11:00.410Z,2.67
2018-11-27T20:13:27.327Z,2.60
2018-11-27T20:15:54.263Z,2.62
2018-11-27T20:18:21.222Z,2.50
2018-11-27T20:20:48.150Z,2.90
2018-11-27T20:23:15.070Z,2.95
2018-11-27T20:25:42.054Z,3.25
2018-11-27T20:28:09.038Z,2.95
2018-11-27T20:30:37.446Z,3.00
2018-11-27T20:33:05.191Z,2.80
2018-11-27T20:35:32.184Z,2.80
2018-11-27T20:38:00.627Z,2.67
2018-11-27T20:40:27.596Z,2.77
2018-11-27T20:42:54.536Z,2.80
2018-11-27T20:45:22.838Z,3.20
2018-11-27T20:47:51.175Z,2.85
2018-11-27T20:50:20.135Z,2.80
2018-11-27T20:52:48.058Z,2.90
2018-11-27T20:55:15.330Z,2.92
2018-11-27T20:57:44.098Z,2.60
2018-11-27T21:00:18.170Z,2.65
2018-11-27T21:02:45.754Z,2.55
2018-11-27T21:05:14.401Z,2.80
2018-11-27T21:07:41.352Z,2.83
2018-11-27T21:10:11.871Z,3.00
2018-11-27T21:12:39.310Z,2.60
2018-11-27T21:15:09.096Z,2.20
2018-11-27T21:17:37.942Z,2.67
2018-11-27T21:20:08.710Z,2.42
2018-11-27T21:22:37.331Z,2.42
2018-11-27T21:25:08.187Z,2.90
2018-11-27T21:27:35.852Z,2.90
2018-11-27T21:30:04.475Z,3.02
2018-11-27T21:32:32.123Z,3.17
2018-11-27T21:34:59.671Z,3.42
2018-11-27T21:37:27.223Z,3.25
2018-11-27T21:39:54.189Z,2.92
2018-11-27T21:42:21.128Z,3.22
2018-11-27T21:44:48.546Z,4.08
2018-11-27T21:47:15.482Z,3.37
2018-11-27T21:49:43.586Z,4.78
2018-11-27T21:52:12.893Z,4.25
2018-11-27T21:54:41.181Z,3.83
2018-11-27T21:57:10.052Z,3.98
2018-11-27T21:59:37.243Z,3.77
2018-11-27T22:02:04.192Z,3.83
2018-11-27T22:04:31.127Z,3.55
2018-11-27T22:06:58.825Z,4.22
2018-11-27T22:09:25.762Z,3.40
2018-11-27T22:11:52.694Z,3.90
2018-11-27T22:14:20.513Z,3.77
2018-11-27T22:16:47.439Z,3.98
2018-11-27T22:19:14.373Z,3.65
2018-11-27T22:21:41.327Z,3.67
2018-11-27T22:24:08.262Z,3.62
2018-11-27T22:26:35.196Z,3.85
2018-11-27T22:29:02.130Z,4.00
2018-11-27T22:31:29.076Z,3.77
2018-11-27T22:33:56.043Z,3.75
2018-11-27T22:36:22.963Z,4.35
2018-11-27T22:38:49.898Z,3.87
2018-11-27T22:41:16.818Z,3.87
2018-11-27T22:43:43.744Z,3.83
2018-11-27T22:46:10.700Z,3.15
2018-11-27T22:48:37.637Z,3.10
2018-11-27T22:51:04.603Z,3.00
2018-11-27T22:53:31.533Z,2.72
2018-11-27T22:55:58.471Z,3.10
2018-11-27T22:58:25.408Z,3.12
2018-11-27T23:00:52.331Z,3.22
2018-11-27T23:03:19.339Z,3.25
2018-11-27T23:05:46.274Z,2.75
2018-11-27T23:08:13.222Z,2.55
2018-11-27T23:10:41.515Z,2.60
2018-11-27T23:13:08.454Z,2.77
2018-11-27T23:15:35.401Z,2.58
2018-11-27T23:18:02.346Z,2.98
2018-11-27T23:20:29.311Z,2.70
2018-11-27T23:22:56.251Z,3.52
2018-11-27T23:25:23.195Z,3.45
2018-11-27T23:27:50.161Z,3.30
2018-11-27T23:30:19.511Z,3.08
2018-11-27T23:32:46.529Z,3.37
2018-11-27T23:35:20.243Z,3.70
2018-11-27T23:37:47.163Z,3.30
2018-11-27T23:40:15.580Z,3.35
2018-11-27T23:42:42.836Z,3.50
2018-11-27T23:45:13.472Z,3.22
2018-11-27T23:47:40.407Z,3.50
2018-11-27T23:50:08.916Z,3.30
2018-11-27T23:52:35.848Z,3.12
2018-11-27T23:55:02.822Z,2.98
2018-11-27T23:57:29.759Z,2.98
2018-11-27T23:59:56.681Z,3.27
